Time;durP1;ratioP1;P1;durP2;ratioP2;P2;SDS_P1;SDS_P2;PMS_P1;PMS_P2;Temp;Humidity;BMP_temperature;BMP_pressure;BME280_temperature;BME280_humidity;BME280_pressure;Samples;Min_cycle;Max_cycle;Signal;HPM_P1;HPM_P2
2023/05/06 00:01:30;;;;;;;0.80;0.80;;;;;;;13.34;100.00;96406.91;5014322;28;105105;-61
2023/05/06 00:03:57;;;;;;;1.17;0.90;;;;;;;13.34;100.00;96406.91;5009465;28;102758;-61
2023/05/06 00:06:24;;;;;;;0.83;0.80;;;;;;;13.31;100.00;96406.66;5012095;28;102182;-61
2023/05/06 00:08:50;;;;;;;0.80;0.80;;;;;;;13.32;100.00;96400.25;5013412;28;102828;-61
2023/05/06 00:11:17;;;;;;;1.47;1.00;;;;;;;13.25;100.00;96402.38;5023995;28;106363;-61
2023/05/06 00:13:44;;;;;;;1.73;1.00;;;;;;;13.15;100.00;96397.84;5032467;28;101983;-61
2023/05/06 00:16:11;;;;;;;2.30;0.90;;;;;;;13.10;100.00;96400.50;5034444;28;104816;-61
2023/05/06 00:18:40;;;;;;;1.53;1.00;;;;;;;13.21;100.00;96395.97;5026301;27;101889;-61
2023/05/06 00:21:08;;;;;;;1.90;1.17;;;;;;;13.06;100.00;96395.94;5022457;28;105577;-61
2023/05/06 00:23:35;;;;;;;1.80;1.10;;;;;;;13.07;100.00;96385.00;5031003;28;105338;-61
2023/05/06 00:26:02;;;;;;;2.10;1.10;;;;;;;13.00;100.00;96395.16;5033728;27;101720;-61
2023/05/06 00:28:29;;;;;;;1.17;1.07;;;;;;;12.98;100.00;96386.59;5018554;28;105036;-61
2023/05/06 00:30:56;;;;;;;1.63;1.20;;;;;;;12.98;100.00;96399.94;5019890;28;104095;-61
2023/05/06 00:33:23;;;;;;;1.33;1.23;;;;;;;13.04;100.00;96390.06;5031894;28;101883;-61
2023/05/06 00:35:52;;;;;;;1.53;1.40;;;;;;;12.65;100.00;96389.69;5031586;28;105031;-61
2023/05/06 00:38:19;;;;;;;3.10;1.30;;;;;;;12.38;100.00;96394.41;5034802;28;105513;-61
2023/05/06 00:40:46;;;;;;;1.93;1.40;;;;;;;12.52;100.00;96390.19;5031551;28;103714;-61
2023/05/06 00:43:13;;;;;;;1.80;1.50;;;;;;;12.57;100.00;96384.88;5018796;28;106631;-61
2023/05/06 00:45:40;;;;;;;1.40;1.30;;;;;;;12.60;100.00;96386.22;5018078;28;101910;-61
2023/05/06 00:48:07;;;;;;;1.50;1.40;;;;;;;12.65;100.00;96384.34;5031623;28;105188;-61
2023/05/06 00:50:35;;;;;;;1.93;1.40;;;;;;;12.63;100.00;96377.69;5024820;28;105318;-61
2023/05/06 00:53:05;;;;;;;2.40;1.30;;;;;;;12.58;100.00;96383.81;5011417;28;101988;-61
2023/05/06 00:55:32;;;;;;;1.60;1.50;;;;;;;12.56;100.00;96377.94;5027872;28;105134;-62
2023/05/06 00:57:59;;;;;;;1.40;1.30;;;;;;;12.52;100.00;96371.53;5033604;28;105461;-61
2023/05/06 01:00:27;;;;;;;1.70;1.60;;;;;;;12.47;100.00;96384.03;5030654;28;104798;-61
2023/05/06 01:02:54;;;;;;;1.97;1.43;;;;;;;12.25;100.00;96389.56;5031005;28;105421;-61
2023/05/06 01:05:23;;;;;;;1.43;1.33;;;;;;;12.34;100.00;96385.34;5031138;28;101924;-61
2023/05/06 01:07:58;;;;;;;1.70;1.40;;;;;;;12.40;100.00;96383.47;5030064;28;105115;-61
2023/05/06 01:10:33;;;;;;;3.03;1.60;;;;;;;12.46;100.00;96380.59;5025829;28;105422;-61
2023/05/06 01:13:07;;;;;;;2.67;1.73;;;;;;;12.52;100.00;96389.38;5012472;28;102071;-61
2023/05/06 01:15:38;;;;;;;1.80;1.70;;;;;;;12.60;100.00;96388.91;5010346;28;105190;-61
2023/05/06 01:18:11;;;;;;;2.00;1.50;;;;;;;12.62;100.00;96386.75;5012826;28;102650;-61
2023/05/06 01:20:42;;;;;;;1.53;1.43;;;;;;;12.62;100.00;96384.91;5014499;28;101921;-61
2023/05/06 01:23:12;;;;;;;1.90;1.80;;;;;;;12.59;100.00;96392.63;5016130;28;105388;-61
2023/05/06 01:25:39;;;;;;;2.00;1.67;;;;;;;12.52;100.00;96381.38;5030872;28;101806;-61
2023/05/06 01:28:09;;;;;;;2.10;1.50;;;;;;;12.59;100.00;96376.63;5030246;28;105240;-61
2023/05/06 01:30:52;;;;;;;1.73;1.43;;;;;;;12.62;100.00;96384.09;5021549;28;105309;-61
2023/05/06 01:33:28;;;;;;;2.10;1.57;;;;;;;12.61;100.00;96377.97;5010851;28;102268;-61
2023/05/06 01:36:08;;;;;;;2.33;1.73;;;;;;;12.58;100.00;96375.81;4990811;28;105660;-61
2023/05/06 01:38:45;;;;;;;2.03;1.80;;;;;;;12.57;100.00;96378.72;4996377;28;102732;-62
2023/05/06 01:41:16;;;;;;;2.60;1.70;;;;;;;12.59;100.00;96376.63;5011548;28;101935;-61
2023/05/06 01:43:45;;;;;;;2.23;1.90;;;;;;;12.54;100.00;96376.59;5016641;28;105840;-62
2023/05/06 01:46:17;;;;;;;1.90;1.67;;;;;;;12.25;100.00;96383.41;5023087;28;102840;-61
2023/05/06 01:48:46;;;;;;;1.83;1.63;;;;;;;12.23;100.00;96377.56;5010824;28;105656;-61
2023/05/06 01:51:13;;;;;;;2.07;1.70;;;;;;;12.36;100.00;96377.88;5011171;28;102762;-61
2023/05/06 01:53:42;;;;;;;1.77;1.67;;;;;;;12.43;100.00;96380.31;5010503;28;102105;-62
2023/05/06 01:56:09;;;;;;;2.30;1.93;;;;;;;12.46;100.00;96377.91;5010592;28;105471;-61
2023/05/06 01:58:37;;;;;;;1.93;1.83;;;;;;;12.55;100.00;96387.03;5009681;28;105079;-61
2023/05/06 02:01:05;;;;;;;1.80;1.70;;;;;;;12.53;100.00;96383.00;5011710;28;102120;-61
2023/05/06 02:03:33;;;;;;;1.90;1.80;;;;;;;12.53;100.00;96386.47;5014892;28;105229;-61
2023/05/06 02:06:00;;;;;;;1.97;1.77;;;;;;;12.54;100.00;96389.94;5033427;28;105469;-61
2023/05/06 02:08:30;;;;;;;1.90;1.80;;;;;;;12.50;100.00;96379.00;5013586;28;106106;-61
2023/05/06 02:10:58;;;;;;;1.90;1.80;;;;;;;12.42;100.00;96397.38;5009643;28;105386;-61
2023/05/06 02:13:25;;;;;;;2.60;2.40;;;;;;;12.31;100.00;96393.84;5023193;28;101957;-61
2023/05/06 02:15:53;;;;;;;3.10;2.40;;;;;;;12.37;100.00;96384.03;5010392;28;105343;-61
2023/05/06 02:18:22;;;;;;;2.43;2.13;;;;;;;12.29;100.00;96397.84;5009771;28;105548;-61
2023/05/06 02:20:49;;;;;;;3.33;2.50;;;;;;;12.35;100.00;96391.47;5010386;28;102005;-61
2023/05/06 02:23:16;;;;;;;3.70;2.67;;;;;;;12.37;100.00;96394.69;5022701;28;105232;-62
2023/05/06 02:25:44;;;;;;;3.53;2.80;;;;;;;12.35;100.00;96399.47;5010729;28;102532;-61
2023/05/06 02:28:12;;;;;;;2.97;2.37;;;;;;;12.47;100.00;96389.38;5027768;27;101981;-62
2023/05/06 02:30:39;;;;;;;2.57;1.90;;;;;;;12.60;100.00;96386.22;5029559;28;105347;-61
2023/05/06 02:33:06;;;;;;;2.50;1.70;;;;;;;12.63;100.00;96383.81;5028976;28;101944;-62
2023/05/06 02:35:33;;;;;;;2.13;1.93;;;;;;;12.61;100.00;96385.97;4981115;28;105824;-61
2023/05/06 02:38:00;;;;;;;2.30;1.97;;;;;;;12.66;100.00;96383.31;5030783;27;102522;-62
2023/05/06 02:40:27;;;;;;;2.67;1.57;;;;;;;12.69;100.00;96368.63;5030930;27;101874;-62
2023/05/06 02:42:54;;;;;;;1.40;1.30;;;;;;;12.73;100.00;96369.69;5030007;28;105212;-62
2023/05/06 02:45:23;;;;;;;1.60;1.50;;;;;;;12.80;100.00;96375.59;5030199;27;103112;-62
2023/05/06 02:47:50;;;;;;;3.70;1.90;;;;;;;12.82;100.00;96370.81;5022428;28;101967;-62
2023/05/06 02:50:17;;;;;;;2.40;1.50;;;;;;;12.78;100.00;96369.72;5012526;28;103746;-62
2023/05/06 02:52:44;;;;;;;3.07;1.83;;;;;;;12.78;100.00;96367.06;5015563;28;101906;-61
2023/05/06 02:55:11;;;;;;;2.07;1.70;;;;;;;12.77;100.00;96368.13;5029086;28;105683;-61
2023/05/06 02:57:38;;;;;;;2.70;1.97;;;;;;;12.77;100.00;96373.47;5024861;27;103125;-61
2023/05/06 03:00:09;;;;;;;2.93;1.90;;;;;;;12.78;100.00;96365.19;5016283;28;101903;-62
2023/05/06 03:02:38;;;;;;;3.30;1.80;;;;;;;12.68;100.00;96365.16;5030489;27;102048;-61
2023/05/06 03:05:05;;;;;;;2.67;1.90;;;;;;;12.70;100.00;96363.03;5028870;28;105489;-62
2023/05/06 03:07:32;;;;;;;2.47;1.70;;;;;;;12.68;100.00;96356.34;5023772;28;101936;-61
2023/05/06 03:09:59;;;;;;;2.10;1.80;;;;;;;12.60;100.00;96356.88;5012224;28;104890;-61
2023/05/06 03:12:26;;;;;;;3.63;1.50;;;;;;;12.57;100.00;96363.53;5021141;28;101911;-62
2023/05/06 03:14:53;;;;;;;2.80;2.00;;;;;;;12.61;100.00;96369.97;5014325;28;105234;-62
2023/05/06 03:17:21;;;;;;;2.47;2.27;;;;;;;12.52;100.00;96370.72;5008776;28;105249;-62
2023/05/06 03:19:50;;;;;;;2.83;1.90;;;;;;;12.46;100.00;96361.91;5009448;28;101934;-62
2023/05/06 03:22:18;;;;;;;2.17;2.07;;;;;;;12.44;100.00;96364.03;5020108;28;104897;-61
2023/05/06 03:24:46;;;;;;;2.37;1.90;;;;;;;12.42;100.00;96373.38;5015562;28;105099;-61
2023/05/06 03:27:13;;;;;;;4.70;2.30;;;;;;;12.39;100.00;96365.88;5024208;28;102019;-62
2023/05/06 03:29:41;;;;;;;2.10;2.00;;;;;;;12.42;100.00;96365.38;5028679;28;104955;-62
2023/05/06 03:32:10;;;;;;;2.93;2.07;;;;;;;12.43;100.00;96367.75;5022103;28;105026;-62
2023/05/06 03:34:41;;;;;;;2.40;2.30;;;;;;;12.32;100.00;96371.44;5020516;28;104875;-62
2023/05/06 03:37:13;;;;;;;4.37;2.67;;;;;;;12.30;100.00;96365.59;5028113;28;104735;-62
2023/05/06 03:39:47;;;;;;;4.63;2.60;;;;;;;12.31;100.00;96353.06;5012089;28;101870;-61
2023/05/06 03:42:15;;;;;;;2.70;2.50;;;;;;;12.17;100.00;96370.59;5018453;28;105215;-61
2023/05/06 03:44:42;;;;;;;4.53;2.37;;;;;;;12.17;100.00;96374.09;5024632;28;105065;-61
2023/05/06 03:47:10;;;;;;;2.60;2.40;;;;;;;12.07;100.00;96376.69;5018869;28;101942;-61
2023/05/06 03:49:37;;;;;;;2.20;2.10;;;;;;;12.05;100.00;96380.69;5008638;28;105486;-61
2023/05/06 03:52:05;;;;;;;2.57;2.23;;;;;;;12.09;100.00;96379.91;5017126;28;105862;-61
2023/05/06 03:54:34;;;;;;;2.47;2.20;;;;;;;12.10;100.00;96378.03;5018104;27;102052;-61
2023/05/06 03:57:02;;;;;;;2.40;2.20;;;;;;;12.11;100.00;96379.63;5015260;28;105455;-61
2023/05/06 03:59:29;;;;;;;2.27;2.07;;;;;;;12.15;100.00;96384.19;5028686;28;101962;-61
2023/05/06 04:01:58;;;;;;;2.57;2.27;;;;;;;12.16;100.00;96383.13;5020199;28;104378;-61
2023/05/06 04:04:27;;;;;;;2.27;1.93;;;;;;;12.17;100.00;96374.09;5008109;28;104485;-61
2023/05/06 04:06:54;;;;;;;2.63;2.43;;;;;;;12.14;100.00;96371.09;5024734;28;101839;-61
2023/05/06 04:09:21;;;;;;;2.30;2.20;;;;;;;12.10;100.00;96370.84;5028265;28;103706;-62
2023/05/06 04:11:50;;;;;;;2.47;2.27;;;;;;;12.16;100.00;96382.34;5014624;28;102571;-62
2023/05/06 04:14:18;;;;;;;2.60;2.40;;;;;;;12.13;100.00;96372.19;5008301;28;102022;-61
2023/05/06 04:16:45;;;;;;;2.93;2.30;;;;;;;12.22;100.00;96376.75;5011262;28;104897;-62
2023/05/06 04:19:12;;;;;;;2.17;2.07;;;;;;;12.24;100.00;96387.16;5024780;28;102004;-62
2023/05/06 04:21:39;;;;;;;2.50;2.27;;;;;;;12.20;100.00;96384.22;5008918;28;103784;-61
2023/05/06 04:24:10;;;;;;;4.17;2.40;;;;;;;12.23;100.00;96394.38;5028856;27;102735;-62
2023/05/06 04:26:39;;;;;;;2.80;2.60;;;;;;;12.23;100.00;96388.22;5028569;28;101911;-61
2023/05/06 04:29:08;;;;;;;2.60;2.40;;;;;;;12.30;100.00;96380.78;5027817;28;105480;-62
2023/05/06 04:31:42;;;;;;;2.40;2.20;;;;;;;12.36;100.00;96390.41;5004438;28;105516;-61
2023/05/06 04:34:11;;;;;;;2.30;2.20;;;;;;;12.32;100.00;96389.34;5019400;28;102335;-61
2023/05/06 04:36:39;;;;;;;3.30;2.23;;;;;;;12.31;100.00;96390.41;5012395;28;105195;-61
2023/05/06 04:39:30;;;;;;;2.60;2.40;;;;;;;12.31;100.00;96393.06;5012128;28;105676;-61
2023/05/06 04:41:59;;;;;;;2.20;2.00;;;;;;;12.38;100.00;96393.63;5009963;28;101949;-62
2023/05/06 04:44:36;;;;;;;2.60;2.50;;;;;;;12.39;100.00;96393.38;5020776;28;105064;-62
2023/05/06 04:47:06;;;;;;;2.70;2.20;;;;;;;12.39;100.00;96392.56;5018112;28;103237;-62
2023/05/06 04:49:33;;;;;;;2.50;2.30;;;;;;;12.37;100.00;96397.34;4988151;28;105313;-62
2023/05/06 04:52:02;;;;;;;2.60;2.40;;;;;;;12.40;100.00;96399.47;4997428;28;105782;-61
2023/05/06 04:54:30;;;;;;;2.67;2.30;;;;;;;12.42;100.00;96398.16;5023612;28;102567;-61
2023/05/06 04:56:57;;;;;;;2.93;2.10;;;;;;;12.39;100.00;96408.56;5031363;28;103740;-61
2023/05/06 04:59:24;;;;;;;2.20;2.10;;;;;;;12.44;100.00;96412.03;5031015;28;105354;-62
2023/05/06 05:01:53;;;;;;;2.90;2.30;;;;;;;12.41;100.00;96417.09;5029414;28;102134;-62
2023/05/06 05:04:20;;;;;;;3.23;2.60;;;;;;;12.45;100.00;96412.84;5022316;28;105484;-62
2023/05/06 05:06:47;;;;;;;2.50;2.40;;;;;;;12.56;100.00;96409.16;5030723;28;101897;-62
2023/05/06 05:09:15;;;;;;;2.70;2.50;;;;;;;12.64;100.00;96409.44;5031364;28;104871;-61
2023/05/06 05:11:44;;;;;;;2.17;2.07;;;;;;;12.70;100.00;96410.28;5028895;28;105212;-61
2023/05/06 05:14:11;;;;;;;2.73;2.10;;;;;;;12.65;100.00;96411.03;5031004;28;102025;-61
2023/05/06 05:16:38;;;;;;;2.60;2.40;;;;;;;12.74;100.00;96417.47;5016036;28;104991;-61
2023/05/06 05:19:07;;;;;;;3.60;2.20;;;;;;;12.80;100.00;96415.63;5010065;28;105226;-61
2023/05/06 05:21:34;;;;;;;2.07;1.97;;;;;;;12.89;100.00;96422.03;5014670;28;102318;-61
2023/05/06 05:24:12;;;;;;;2.23;2.03;;;;;;;12.95;100.00;96415.66;5010655;28;105280;-61
2023/05/06 05:26:39;;;;;;;2.13;2.03;;;;;;;12.92;100.00;96421.53;5011381;28;101802;-61
2023/05/06 05:29:06;;;;;;;2.53;2.33;;;;;;;12.99;100.00;96414.09;5010954;28;105249;-61
2023/05/06 05:31:35;;;;;;;2.70;2.20;;;;;;;13.01;100.00;96414.63;5010771;28;103870;-61
2023/05/06 05:34:22;;;;;;;3.33;2.03;;;;;;;13.00;100.00;96421.03;5011146;28;102275;-62
2023/05/06 05:36:50;;;;;;;2.10;2.00;;;;;;;13.12;100.00;96416.25;5011192;28;105031;-61
2023/05/06 05:39:17;;;;;;;2.00;1.90;;;;;;;13.10;100.00;96418.38;5010537;28;104088;-60
2023/05/06 05:41:46;;;;;;;2.10;2.00;;;;;;;13.19;100.00;96424.81;5010912;28;101887;-60
2023/05/06 05:44:21;;;;;;;2.43;2.23;;;;;;;13.25;100.00;96413.06;5013662;28;105195;-60
2023/05/06 05:46:49;;;;;;;9.63;8.50;;;;;;;13.49;100.00;96425.63;5011096;28;101880;-60
2023/05/06 05:49:19;;;;;;;2.53;2.00;;;;;;;13.50;100.00;96424.56;5016299;28;105513;-60
2023/05/06 05:51:47;;;;;;;2.27;2.07;;;;;;;13.48;100.00;96418.69;5031899;27;102645;-60
2023/05/06 05:54:45;;;;;;;2.30;2.20;;;;;;;13.53;100.00;96409.88;5017272;28;101918;-60
2023/05/06 05:57:12;;;;;;;2.20;2.10;;;;;;;13.52;100.00;96413.59;5010933;28;105432;-60
2023/05/06 05:59:39;;;;;;;2.30;2.03;;;;;;;13.69;100.00;96416.81;5010134;28;105877;-61
2023/05/06 06:02:07;;;;;;;2.40;2.30;;;;;;;13.79;100.00;96416.78;5009875;28;101847;-61
2023/05/06 06:04:36;;;;;;;2.87;2.30;;;;;;;13.90;100.00;96416.50;5011999;28;103399;-61
2023/05/06 06:07:05;;;;;;;2.53;2.33;;;;;;;14.02;100.00;96408.19;5013489;28;105315;-61
2023/05/06 06:09:36;;;;;;;3.20;2.50;;;;;;;14.38;100.00;96410.50;5011111;28;105219;-61
2023/05/06 06:12:04;;;;;;;2.53;2.33;;;;;;;14.31;100.00;96409.19;5009385;28;105272;-61
2023/05/06 06:14:33;;;;;;;2.43;2.20;;;;;;;14.39;100.00;96414.78;5010261;28;101916;-61
2023/05/06 06:17:01;;;;;;;2.17;2.07;;;;;;;14.39;100.00;96411.31;5021078;28;105560;-61
2023/05/06 06:19:29;;;;;;;2.20;2.10;;;;;;;14.54;100.00;96416.59;5013974;28;105592;-61
2023/05/06 06:21:57;;;;;;;1.70;1.60;;;;;;;14.48;100.00;96418.50;5010020;28;102225;-61
2023/05/06 06:24:26;;;;;;;3.47;2.13;;;;;;;14.71;100.00;96411.72;5010180;28;104851;-61
2023/05/06 06:26:53;;;;;;;2.30;2.10;;;;;;;14.75;100.00;96415.44;5020001;28;104449;-61
2023/05/06 06:29:20;;;;;;;2.43;1.80;;;;;;;15.04;100.00;96417.13;5019194;28;101875;-61
2023/05/06 06:31:47;;;;;;;2.57;2.17;;;;;;;14.92;100.00;96414.00;5028953;28;105869;-61
2023/05/06 06:34:15;;;;;;;1.60;1.50;;;;;;;14.90;100.00;96415.34;5029999;28;102279;-61
2023/05/06 06:36:44;;;;;;;1.93;1.73;;;;;;;14.96;100.00;96411.56;5028899;28;105651;-61
2023/05/06 06:39:11;;;;;;;2.40;1.70;;;;;;;15.10;100.00;96421.38;5029971;27;102707;-61
2023/05/06 06:41:40;;;;;;;3.33;1.60;;;;;;;15.07;100.00;96421.97;5025675;28;101921;-61
2023/05/06 06:44:07;;;;;;;2.33;1.50;;;;;;;15.23;100.00;96414.63;5011564;28;105446;-61
2023/05/06 06:46:34;;;;;;;2.47;1.53;;;;;;;15.28;100.00;96412.72;5010538;28;103672;-61
2023/05/06 06:49:01;;;;;;;1.47;1.37;;;;;;;15.26;100.00;96408.72;5010944;28;101976;-61
2023/05/06 06:51:28;;;;;;;2.20;1.60;;;;;;;15.36;100.00;96408.69;5031586;27;102223;-61
2023/05/06 06:53:55;;;;;;;2.00;1.90;;;;;;;15.75;100.00;96409.41;5030604;27;102034;-61
2023/05/06 06:56:22;;;;;;;2.83;2.40;;;;;;;15.89;100.00;96404.97;5031223;28;102423;-61
2023/05/06 06:58:51;;;;;;;2.70;1.60;;;;;;;16.14;100.00;96418.16;5028752;28;102642;-61
2023/05/06 07:01:18;;;;;;;1.50;1.40;;;;;;;16.28;100.00;96405.63;5030873;27;101849;-61
2023/05/06 07:03:45;;;;;;;1.47;1.40;;;;;;;16.31;100.00;96399.72;5029169;28;105210;-61
2023/05/06 07:06:12;;;;;;;1.77;1.20;;;;;;;16.26;100.00;96413.19;5030345;27;103016;-61
2023/05/06 07:08:39;;;;;;;2.03;1.27;;;;;;;16.41;100.00;96415.72;5030245;27;101989;-61
2023/05/06 07:11:06;;;;;;;1.20;1.10;;;;;;;16.17;100.00;96415.69;5011152;28;103564;-61
2023/05/06 07:13:33;;;;;;;1.30;1.20;;;;;;;16.11;100.00;96416.03;5013449;28;102706;-61
2023/05/06 07:16:01;;;;;;;2.03;1.27;;;;;;;16.25;100.00;96416.97;5011224;28;102222;-61
2023/05/06 07:18:28;;;;;;;2.57;1.57;;;;;;;16.36;100.00;96418.44;5008667;28;105295;-62
2023/05/06 07:20:55;;;;;;;2.57;1.10;;;;;;;16.38;100.00;96416.25;5012292;28;102190;-61
2023/05/06 07:23:22;;;;;;;1.27;1.10;;;;;;;16.50;100.00;96420.19;5023625;27;102852;-61
2023/05/06 07:25:49;;;;;;;1.43;1.33;;;;;;;16.62;100.00;96419.78;5008701;28;105141;-61
2023/05/06 07:28:16;;;;;;;2.10;1.30;;;;;;;16.69;100.00;96422.91;5008628;28;102034;-62
2023/05/06 07:30:43;;;;;;;1.50;1.40;;;;;;;16.66;100.00;96420.78;5009135;28;104866;-61
2023/05/06 07:33:11;;;;;;;1.60;1.50;;;;;;;16.77;100.00;96414.19;5011931;28;105034;-61
2023/05/06 07:35:38;;;;;;;1.50;1.40;;;;;;;16.56;100.00;96418.25;5008875;28;103780;-61
2023/05/06 07:38:05;;;;;;;3.10;1.70;;;;;;;17.02;100.00;96422.75;5008201;28;105710;-61
2023/05/06 07:40:31;;;;;;;1.60;1.50;;;;;;;17.17;100.00;96419.03;5009031;28;101948;-61
2023/05/06 07:42:58;;;;;;;1.77;1.43;;;;;;;17.42;100.00;96416.81;5012728;28;103712;-62
2023/05/06 07:45:25;;;;;;;1.20;1.20;;;;;;;17.67;100.00;96411.03;5028130;28;105059;-61
2023/05/06 07:47:52;;;;;;;1.87;1.40;;;;;;;17.95;100.00;96419.97;5026363;28;102015;-61
2023/05/06 07:50:20;;;;;;;1.50;1.40;;;;;;;17.39;100.00;96416.59;5008795;28;105132;-61
2023/05/06 07:52:47;;;;;;;2.57;1.63;;;;;;;17.57;100.00;96416.56;5008167;28;105215;-61
2023/05/06 07:55:15;;;;;;;1.63;1.53;;;;;;;17.68;100.00;96426.06;5012270;28;102109;-61
2023/05/06 07:57:42;;;;;;;1.30;1.30;;;;;;;18.12;100.00;96428.25;5008841;28;105311;-61
2023/05/06 08:00:10;;;;;;;1.20;1.20;;;;;;;18.04;100.00;96426.28;5008654;28;101965;-61
2023/05/06 08:02:43;;;;;;;2.00;1.20;;;;;;;18.11;100.00;96430.19;5025873;28;104871;-61
2023/05/06 08:05:10;;;;;;;2.33;1.37;;;;;;;18.27;100.00;96430.69;5007932;28;104520;-62
2023/05/06 08:07:39;;;;;;;3.60;1.40;;;;;;;18.33;100.00;96429.53;4992103;28;101911;-62
2023/05/06 08:10:08;;;;;;;3.80;1.50;;;;;;;18.62;100.00;96435.41;5008583;28;105351;-61
2023/05/06 08:12:36;;;;;;;3.10;1.47;;;;;;;18.11;100.00;96432.06;5009227;28;103225;-61
2023/05/06 08:15:03;;;;;;;1.50;1.40;;;;;;;17.92;100.00;96436.72;5016895;28;102317;-62
2023/05/06 08:17:30;;;;;;;1.80;1.70;;;;;;;17.66;100.00;96430.94;5022126;27;102266;-62
2023/05/06 08:19:57;;;;;;;3.47;1.87;;;;;;;17.70;100.00;96444.59;5009791;28;101840;-61
2023/05/06 08:22:24;;;;;;;2.20;1.97;;;;;;;18.03;100.00;96436.22;5008710;28;105550;-61
2023/05/06 08:24:53;;;;;;;2.07;1.70;;;;;;;18.66;100.00;96437.22;5024768;27;105689;-61
2023/05/06 08:27:20;;;;;;;2.00;1.83;;;;;;;19.04;100.00;96443.97;5020687;28;102008;-61
2023/05/06 08:29:47;;;;;;;2.17;2.00;;;;;;;19.23;100.00;96441.19;5010151;28;105537;-61
2023/05/06 08:32:14;;;;;;;2.20;2.10;;;;;;;18.47;100.00;96443.81;5012314;28;105386;-61
2023/05/06 08:34:40;;;;;;;2.73;2.53;;;;;;;18.08;100.00;96446.09;5010698;28;102026;-61
2023/05/06 08:37:07;;;;;;;2.43;2.23;;;;;;;18.17;100.00;96447.00;5012455;28;105236;-61
2023/05/06 08:39:34;;;;;;;2.53;2.33;;;;;;;17.55;100.00;96444.84;5014512;28;103122;-61
2023/05/06 08:42:03;;;;;;;2.60;2.40;;;;;;;17.84;100.00;96448.13;5010183;28;105565;-61
2023/05/06 08:44:30;;;;;;;2.63;2.50;;;;;;;17.98;100.00;96449.75;5009347;28;105574;-61
2023/05/06 08:46:57;;;;;;;3.00;2.80;;;;;;;17.91;100.00;96451.22;5009930;28;101910;-61
2023/05/06 08:49:24;;;;;;;6.33;2.80;;;;;;;17.89;100.00;96450.75;5010898;28;105133;-62
2023/05/06 08:51:52;;;;;;;3.07;2.53;;;;;;;18.08;100.00;96457.66;5012102;28;102905;-61
2023/05/06 08:54:19;;;;;;;2.97;2.77;;;;;;;17.85;100.00;96463.97;5025671;28;102301;-61
2023/05/06 08:56:52;;;;;;;5.00;2.77;;;;;;;17.72;100.00;96458.56;5031630;28;105502;-62
2023/05/06 08:59:25;;;;;;;3.70;3.30;;;;;;;17.63;100.00;96465.69;5017217;27;102623;-61
2023/05/06 09:01:52;;;;;;;3.80;3.13;;;;;;;17.45;100.00;96466.50;5014987;28;102133;-62
2023/05/06 09:04:19;;;;;;;3.70;3.40;;;;;;;17.55;100.00;96463.66;5025298;28;105558;-61
2023/05/06 09:06:46;;;;;;;3.60;3.20;;;;;;;17.76;100.00;96464.97;5029894;28;101883;-62
2023/05/06 09:09:14;;;;;;;3.50;3.30;;;;;;;17.78;100.00;96468.13;5030964;28;105388;-61
2023/05/06 09:11:41;;;;;;;3.60;3.30;;;;;;;17.94;100.00;96456.03;5030541;28;104980;-61
2023/05/06 09:14:11;;;;;;;4.00;3.60;;;;;;;18.19;100.00;96463.66;5016533;28;101802;-61
2023/05/06 09:16:41;;;;;;;4.63;3.37;;;;;;;17.66;100.00;96455.13;5011165;28;105244;-61
2023/05/06 09:19:08;;;;;;;3.70;3.50;;;;;;;17.71;100.00;96462.34;4990367;28;105682;-61
2023/05/06 09:21:36;;;;;;;4.70;4.30;;;;;;;18.05;100.00;96457.47;4994611;28;101920;-61
2023/05/06 09:24:06;;;;;;;7.50;5.97;;;;;;;18.43;100.00;96458.97;5010701;28;105462;-61
2023/05/06 09:26:34;;;;;;;4.63;4.10;;;;;;;17.81;100.00;96459.47;5012773;28;101833;-61
2023/05/06 09:29:02;;;;;;;5.40;3.63;;;;;;;18.38;100.00;96453.66;5013743;28;106024;-61
2023/05/06 09:31:29;;;;;;;4.87;4.10;;;;;;;19.06;100.00;96463.34;5011387;28;105860;-62
2023/05/06 09:34:00;;;;;;;4.17;3.77;;;;;;;18.43;100.00;96456.28;5028915;28;101878;-61
2023/05/06 09:36:28;;;;;;;3.80;3.50;;;;;;;18.72;100.00;96457.56;5030481;27;105169;-61
2023/05/06 09:38:55;;;;;;;4.07;3.27;;;;;;;18.72;100.00;96457.56;5028003;28;104862;-62
2023/05/06 09:41:24;;;;;;;4.40;4.00;;;;;;;18.40;100.00;96448.78;5027083;28;102012;-61
2023/05/06 09:43:52;;;;;;;4.50;4.10;;;;;;;18.46;100.00;96452.97;5014757;28;102833;-61
2023/05/06 09:46:20;;;;;;;4.63;3.97;;;;;;;18.19;100.00;96450.19;5010564;28;102081;-61
2023/05/06 09:48:50;;;;;;;4.63;4.00;;;;;;;18.43;100.00;96459.75;5010559;28;103747;-61
2023/05/06 09:51:19;;;;;;;5.13;4.03;;;;;;;18.01;100.00;96454.56;5013318;28;102659;-61
2023/05/06 09:53:46;;;;;;;4.53;4.13;;;;;;;18.04;100.00;96451.28;5019953;28;102237;-62
2023/05/06 09:56:15;;;;;;;3.80;3.50;;;;;;;17.97;100.00;96447.34;5027841;28;103516;-62
2023/05/06 09:58:42;;;;;;;4.10;3.67;;;;;;;18.05;100.00;96454.78;5009759;28;105737;-62
2023/05/06 10:01:10;;;;;;;4.20;3.80;;;;;;;18.50;100.00;96448.59;5011835;28;102040;-62
2023/05/06 10:03:39;;;;;;;4.53;3.70;;;;;;;18.53;100.00;96448.00;5024521;28;104736;-61
2023/05/06 10:06:07;;;;;;;3.90;3.20;;;;;;;18.29;100.00;96440.06;5031651;28;105106;-61
2023/05/06 10:08:36;;;;;;;3.63;3.37;;;;;;;18.33;100.00;96448.38;5030539;28;106023;-61
2023/05/06 10:11:05;;;;;;;3.30;3.00;;;;;;;18.14;100.00;96448.41;5028558;28;104010;-62
2023/05/06 10:13:32;;;;;;;3.83;2.90;;;;;;;18.36;100.00;96443.19;5030195;28;101957;-62
2023/05/06 10:16:00;;;;;;;2.67;2.47;;;;;;;18.36;100.00;96437.81;5015890;28;105292;-62
2023/05/06 10:18:30;;;;;;;3.60;3.30;;;;;;;18.60;100.00;96443.00;5009338;28;105322;-62
2023/05/06 10:20:59;;;;;;;2.90;2.70;;;;;;;18.91;100.00;96433.22;5010224;28;101947;-62
2023/05/06 10:23:31;;;;;;;2.80;2.60;;;;;;;19.27;100.00;96436.75;5011098;28;104961;-62
2023/05/06 10:26:06;;;;;;;3.20;2.90;;;;;;;18.92;100.00;96437.50;5010897;28;102643;-62
2023/05/06 10:28:39;;;;;;;3.47;2.93;;;;;;;19.26;100.00;96433.28;5028338;28;101902;-62
2023/05/06 10:31:11;;;;;;;2.37;2.27;;;;;;;19.29;100.00;96434.56;5029622;28;105429;-61
2023/05/06 10:33:40;;;;;;;2.60;2.40;;;;;;;18.99;100.00;96435.19;5012310;28;102239;-62
2023/05/06 10:36:19;;;;;;;2.50;2.23;;;;;;;19.00;100.00;96428.69;5010189;28;104417;-61
2023/05/06 10:38:48;;;;;;;2.60;2.40;;;;;;;18.72;100.00;96432.53;5012899;28;105105;-62
2023/05/06 10:41:18;;;;;;;2.67;2.47;;;;;;;19.02;100.00;96437.28;5029818;28;101904;-62
2023/05/06 10:43:46;;;;;;;2.87;2.57;;;;;;;18.94;100.00;96427.22;5010976;28;105027;-62
2023/05/06 10:46:15;;;;;;;2.50;2.30;;;;;;;18.74;100.00;96423.03;5009182;28;105515;-62
2023/05/06 10:49:15;;;;;;;4.13;3.00;;;;;;;18.53;100.00;96421.06;5009347;28;101970;-61
2023/05/06 10:51:45;;;;;;;4.47;3.07;;;;;;;18.53;100.00;96429.16;5025372;28;104717;-62
2023/05/06 10:54:22;;;;;;;4.00;2.90;;;;;;;18.63;100.00;96426.25;5029365;28;102078;-62
2023/05/06 10:57:11;;;;;;;2.70;2.50;;;;;;;18.50;100.00;96416.28;5031129;27;102172;-62
2023/05/06 10:59:45;;;;;;;4.03;3.13;;;;;;;18.65;100.00;96419.44;5029041;28;105133;-62
2023/05/06 11:02:13;;;;;;;2.90;2.67;;;;;;;19.49;100.00;96409.81;5025411;27;102241;-61
2023/05/06 11:04:40;;;;;;;2.70;2.50;;;;;;;19.60;100.00;96403.88;5009582;28;103869;-62
2023/05/06 11:07:09;;;;;;;2.63;2.30;;;;;;;20.38;100.00;96398.63;5010555;28;102016;-62
2023/05/06 11:09:54;;;;;;;2.40;2.20;;;;;;;21.04;100.00;96400.31;5023581;28;102053;-62
2023/05/06 11:12:44;;;;;;;4.43;2.40;;;;;;;20.64;100.00;96404.94;5025065;27;102306;-62
2023/05/06 11:15:24;;;;;;;2.33;2.00;;;;;;;21.05;100.00;96401.88;5013478;28;102692;-62
2023/05/06 11:17:53;;;;;;;2.50;2.30;;;;;;;20.55;100.00;96393.28;5019683;28;102405;-61
2023/05/06 11:20:21;;;;;;;4.17;1.90;;;;;;;20.66;100.00;96391.13;5028436;28;103761;-62
2023/05/06 11:22:49;;;;;;;2.27;2.10;;;;;;;20.10;100.00;96396.47;5028390;27;102066;-62
2023/05/06 11:25:39;;;;;;;2.07;1.90;;;;;;;20.16;100.00;96396.00;5028840;27;102151;-62